Natrona, Wyoming
Current Conditions -  °F | °C
As of 4:53 AM on Tuesday 27 Jan 2015 (Local Time) from KCPR Reporting Station
Clear Clear  
Wind Chill: 36°   Ceiling: Unl
Heat Index: 44°   Visibility: 10mi
Dew Point: 24°   Wind: 18mph
Humidity: 45%   Direction: 210°SSW
Pressure: 30.13"   Gusts: 25mph
Location:  43.03°N, 106.81°W
Report Text: KCPR 271153Z 21016G22KT 10SM CLR 07/M04 A3013 RMK AO2 SLP187 T00671044 10083 20061 56003
Loading
Personal Weather Stations






























Interactive Weather Map New forecast layout! Learn more

10-Day Weather Forecast

Advertisements
Track Severe Weather on mobile